Fort Sumner, New Mexico
Current Conditions -  °F | °C
As of 8:56 PM on Wednesday 26 Nov 2014 (Local Time) from K4MR Reporting Station
Clear Clear  
Wind Chill: 32°   Ceiling: Unl
Heat Index: 37°   Visibility: 10mi
Dew Point: 25°   Wind: 7mph
Humidity: 62%   Direction: 140°SE
Pressure: 30.35"   Gusts: NA
Location:  34.47°N, 104.25°W
Report Text: K4MR 270356Z AUTO 14006KT 10SM CLR 03/M04 A3035 RMK AO2 SLP279 T00291037
Loading
Personal Weather Stations






























Interactive Weather Map New forecast layout! Learn more

10-Day Weather Forecast

Advertisements
Track Severe Weather on mobile